Date,TemperatureHighF,TemperatureAvgF,TemperatureLowF,DewpointHighF,DewpointAvgF,DewpointLowF,HumidityHigh,HumidityAvg,HumidityLow,PressureMaxIn,PressureMinIn,WindSpeedMaxMPH,WindSpeedAvgMPH,GustSpeedMaxMPH,PrecipitationSumIn
2013-2-1,32,20,8,15,7,1,79,59,42,30.53,30.24,21,4,21,0.00
2013-2-2,47,35,25,35,25,14,85,67,56,30.26,30.15,21,4,22,0.01
2013-2-3,47,40,34,30,25,17,78,55,35,30.28,29.97,23,5,24,0.00
2013-2-4,56,46,33,38,32,24,84,61,44,29.97,29.81,21,5,22,0.02
2013-2-5,57,42,27,36,30,25,94,66,36,30.08,29.92,19,3,21,0.00
2013-2-6,54,43,32,39,32,27,85,66,46,30.15,29.98,21,8,22,0.00
2013-2-7,49,45,39,47,41,36,95,86,74,30.09,29.86,20,6,21,0.20
2013-2-8,44,35,30,36,29,25,92,78,57,30.32,30.08,21,6,22,0.00
2013-2-9,36,33,30,34,29,25,92,84,69,30.27,29.90,24,11,25,0.12
2013-2-10,55,46,36,48,35,25,96,70,34,30.00,29.64,35,12,35,0.20
2013-2-11,48,37,29,28,25,21,80,63,41,30.18,30.00,15,3,15,0.00
2013-2-12,42,34,25,34,27,22,94,78,55,30.17,29.94,16,2,16,0.01
2013-2-13,45,36,30,34,30,28,96,80,60,29.99,29.91,16,4,17,0.10
2013-2-14,50,42,35,33,29,24,71,59,44,30.14,29.93,17,5,17,0.00
2013-2-15,41,32,23,30,18,7,83,57,33,30.31,30.14,17,6,21,0.00
2013-2-16,35,28,23,22,18,12,87,67,47,30.35,30.16,14,3,14,0.00
2013-2-17,60,44,30,32,25,19,67,49,32,30.16,29.83,20,6,21,0.00
2013-2-18,52,45,30,46,37,22,89,72,58,30.08,29.54,32,9,39,0.05
2013-2-19,38,30,24,23,15,8,76,55,34,30.33,30.08,23,5,25,0.00
2013-2-20,34,27,23,14,10,4,55,47,39,30.35,30.16,18,5,19,0.00
2013-2-21,31,28,23,30,23,13,95,84,52,30.17,29.74,23,8,27,0.00
2013-2-22,32,25,20,30,20,15,95,82,68,30.14,29.85,20,4,20,0.08
2013-2-23,37,26,18,23,18,15,91,75,51,30.14,30.01,13,2,13,0.26
2013-2-24,51,37,22,34,27,19,89,67,49,30.07,29.91,20,6,20,0.22
2013-2-25,41,36,33,33,28,22,91,72,48,29.94,29.41,40,10,40,0.53
2013-2-26,34,30,27,31,29,25,95,93,88,29.85,29.35,24,8,24,0.17
2013-2-27,33,30,26,29,26,22,91,86,79,30.05,29.81,23,9,25,0.05
2013-2-28,31,28,25,26,24,20,86,82,76,30.20,30.04,20,7,23,0.00